createdAt,value
2022-11-08T00:02:22.038Z,60.60
2022-11-08T00:04:48.900Z,60.76
2022-11-08T00:07:34.161Z,61.11
2022-11-08T00:10:19.419Z,60.42
2022-11-08T00:13:04.819Z,60.80
2022-11-08T00:15:38.302Z,61.24
2022-11-08T00:18:08.267Z,61.90
2022-11-08T00:20:34.965Z,61.03
2022-11-08T00:23:01.798Z,61.54
2022-11-08T00:25:28.628Z,61.21
2022-11-08T00:27:55.254Z,61.02
2022-11-08T00:30:21.958Z,61.46
2022-11-08T00:32:48.743Z,60.68
2022-11-08T00:35:15.381Z,61.45
2022-11-08T00:37:42.006Z,60.85
2022-11-08T00:40:09.117Z,60.47
2022-11-08T00:42:35.808Z,61.68
2022-11-08T00:45:02.372Z,61.09
2022-11-08T00:47:29.052Z,60.92
2022-11-08T00:49:55.639Z,61.42
2022-11-08T00:52:22.339Z,61.29
2022-11-08T00:54:48.960Z,61.38
2022-11-08T00:57:15.599Z,60.80
2022-11-08T00:59:42.164Z,61.47
2022-11-08T01:02:09.131Z,61.21
2022-11-08T01:04:35.818Z,61.51
2022-11-08T01:07:03.711Z,62.04
2022-11-08T01:09:30.431Z,63.59
2022-11-08T01:11:57.059Z,61.76
2022-11-08T01:14:23.781Z,63.14
2022-11-08T01:16:50.482Z,62.15
2022-11-08T01:19:17.121Z,61.65
2022-11-08T01:21:43.781Z,62.08
2022-11-08T01:24:10.505Z,62.65
2022-11-08T01:26:37.157Z,62.47
2022-11-08T01:29:03.871Z,62.03
2022-11-08T01:31:32.235Z,62.22
2022-11-08T01:33:59.547Z,62.60
2022-11-08T01:36:28.163Z,63.04
2022-11-08T01:38:56.043Z,63.40
2022-11-08T01:41:24.991Z,62.31
2022-11-08T01:43:53.505Z,61.49
2022-11-08T01:46:20.248Z,63.23
2022-11-08T01:48:49.860Z,63.27
2022-11-08T01:51:20.979Z,63.42
2022-11-08T01:53:47.962Z,62.82
2022-11-08T01:56:15.878Z,63.07
2022-11-08T01:58:46.192Z,62.12
2022-11-08T02:01:13.328Z,62.46
2022-11-08T02:03:41.649Z,64.01
2022-11-08T02:06:09.536Z,63.06
2022-11-08T02:08:43.473Z,62.40
2022-11-08T02:11:14.348Z,63.85
2022-11-08T02:13:41.613Z,64.66
2022-11-08T02:16:13.662Z,64.59
2022-11-08T02:18:42.950Z,66.19
2022-11-08T02:21:28.450Z,66.47
2022-11-08T02:23:58.801Z,65.91
2022-11-08T02:26:29.699Z,65.70
2022-11-08T02:28:56.634Z,65.11
2022-11-08T02:31:23.382Z,64.53
2022-11-08T02:33:50.892Z,66.34
2022-11-08T02:36:19.588Z,65.06
2022-11-08T02:38:51.215Z,66.02
2022-11-08T02:41:18.139Z,66.26
2022-11-08T02:43:44.768Z,67.86
2022-11-08T02:46:11.564Z,66.93
2022-11-08T02:48:38.188Z,67.44
2022-11-08T02:51:05.039Z,68.80
2022-11-08T02:53:32.699Z,67.53
2022-11-08T02:55:59.410Z,67.83
2022-11-08T02:58:28.051Z,68.60
2022-11-08T03:00:54.922Z,68.24
2022-11-08T03:03:21.634Z,68.18
2022-11-08T03:05:48.326Z,67.08
2022-11-08T03:08:15.754Z,66.39
2022-11-08T03:10:42.758Z,67.96
2022-11-08T03:13:09.426Z,67.89
2022-11-08T03:15:36.182Z,67.56
2022-11-08T03:18:03.175Z,67.10
2022-11-08T03:20:32.876Z,67.38
2022-11-08T03:23:02.287Z,67.99
2022-11-08T03:25:29.705Z,67.40
2022-11-08T03:28:02.026Z,67.26
2022-11-08T03:30:28.824Z,67.89
2022-11-08T03:32:55.458Z,68.18
2022-11-08T03:35:22.149Z,67.26
2022-11-08T03:37:53.266Z,68.39
2022-11-08T03:40:20.423Z,68.50
2022-11-08T03:42:47.487Z,67.64
2022-11-08T03:45:15.174Z,68.85
2022-11-08T03:47:47.297Z,68.09
2022-11-08T03:50:16.256Z,67.61
2022-11-08T03:52:48.650Z,67.18
2022-11-08T03:55:16.608Z,66.84
2022-11-08T03:57:45.356Z,67.15
2022-11-08T04:00:14.751Z,66.66
2022-11-08T04:02:42.282Z,66.53
2022-11-08T04:05:10.724Z,67.32
2022-11-08T04:07:38.009Z,65.94
2022-11-08T04:10:06.716Z,65.77
2022-11-08T04:12:51.869Z,65.70
2022-11-08T04:15:22.152Z,66.33
2022-11-08T04:18:09.642Z,65.53
2022-11-08T04:20:59.355Z,66.13
2022-11-08T04:23:26.930Z,65.29
2022-11-08T04:26:01.906Z,66.41
2022-11-08T04:28:34.950Z,66.50
2022-11-08T04:31:07.934Z,66.69
2022-11-08T04:33:35.005Z,65.46
2022-11-08T04:36:13.241Z,66.80
2022-11-08T04:38:40.038Z,66.79
2022-11-08T04:41:10.420Z,67.40
2022-11-08T04:43:37.649Z,68.24
2022-11-08T04:46:15.966Z,69.29
2022-11-08T04:48:43.838Z,67.77
2022-11-08T04:51:13.529Z,67.64
2022-11-08T04:53:40.945Z,67.79
2022-11-08T04:56:19.750Z,67.07
2022-11-08T04:58:51.617Z,67.44
2022-11-08T05:01:20.869Z,68.34
2022-11-08T05:03:49.625Z,67.20
2022-11-08T05:06:29.760Z,66.58
2022-11-08T05:08:58.044Z,65.58
2022-11-08T05:11:26.491Z,65.63
2022-11-08T05:13:53.547Z,66.37
2022-11-08T05:16:26.367Z,65.77
2022-11-08T05:18:53.932Z,67.32
2022-11-08T05:21:40.849Z,67.04
2022-11-08T05:24:10.479Z,67.32
2022-11-08T05:26:39.348Z,68.27
2022-11-08T05:29:06.182Z,68.37
2022-11-08T05:31:33.163Z,68.25
2022-11-08T05:34:00.822Z,67.69
2022-11-08T05:36:28.664Z,67.88
2022-11-08T05:38:55.972Z,67.12
2022-11-08T05:41:24.694Z,67.84
2022-11-08T05:43:53.592Z,69.23
2022-11-08T05:46:21.935Z,68.22
2022-11-08T05:48:49.161Z,67.64
2022-11-08T05:51:17.465Z,67.31
2022-11-08T05:53:44.243Z,67.04
2022-11-08T05:56:11.724Z,66.87
2022-11-08T05:58:38.422Z,68.05
2022-11-08T06:01:13.664Z,67.97
2022-11-08T06:03:40.718Z,67.09
2022-11-08T06:06:10.443Z,68.03
2022-11-08T06:08:37.924Z,68.09
2022-11-08T06:11:09.036Z,67.89
2022-11-08T06:13:35.867Z,67.80
2022-11-08T06:16:04.726Z,67.47
2022-11-08T06:18:32.605Z,68.38
2022-11-08T06:20:59.742Z,67.83
2022-11-08T06:23:27.370Z,67.69
2022-11-08T06:25:54.453Z,68.67
2022-11-08T06:28:21.467Z,67.44
2022-11-08T06:30:48.241Z,67.92
2022-11-08T06:33:15.663Z,67.96
2022-11-08T06:35:42.938Z,67.84
2022-11-08T06:38:09.978Z,68.52
2022-11-08T06:40:39.955Z,67.86
2022-11-08T06:43:07.108Z,67.10
2022-11-08T06:45:33.759Z,66.79
2022-11-08T06:48:02.088Z,68.23
2022-11-08T06:50:30.216Z,67.96
2022-11-08T06:53:06.246Z,66.87
2022-11-08T06:55:33.904Z,67.40
2022-11-08T06:58:01.146Z,68.47
2022-11-08T07:00:28.551Z,66.65
2022-11-08T07:03:00.575Z,67.98
2022-11-08T07:05:28.892Z,67.49
2022-11-08T07:07:57.912Z,66.92
2022-11-08T07:10:26.664Z,66.95
2022-11-08T07:13:13.015Z,67.65
2022-11-08T07:15:40.657Z,67.39
2022-11-08T07:18:08.938Z,66.20
2022-11-08T07:20:36.219Z,67.52
2022-11-08T07:23:05.368Z,67.11
2022-11-08T07:25:32.771Z,67.00
2022-11-08T07:28:02.635Z,66.98
2022-11-08T07:30:30.111Z,66.33
2022-11-08T07:32:57.694Z,66.91
2022-11-08T07:35:27.684Z,66.21
2022-11-08T07:37:55.102Z,65.22
2022-11-08T07:40:21.824Z,65.77
2022-11-08T07:45:35.470Z,65.66
2022-11-08T07:48:11.022Z,64.80
2022-11-08T07:50:39.742Z,63.72
2022-11-08T07:53:06.459Z,65.11
2022-11-08T07:55:35.962Z,65.20
2022-11-08T07:58:02.789Z,64.79
2022-11-08T08:00:30.900Z,66.13
2022-11-08T08:03:01.631Z,64.62
2022-11-08T08:05:30.710Z,65.47
2022-11-08T08:07:58.884Z,65.19
2022-11-08T08:10:28.060Z,64.85
2022-11-08T08:12:56.228Z,65.98
2022-11-08T08:15:23.217Z,66.85
2022-11-08T08:17:49.855Z,65.59
2022-11-08T08:20:16.630Z,65.49
2022-11-08T08:22:51.260Z,66.02
2022-11-08T08:25:19.073Z,65.32
2022-11-08T08:27:50.720Z,65.73
2022-11-08T08:30:19.343Z,65.76
2022-11-08T08:32:53.434Z,63.66
2022-11-08T08:35:29.830Z,63.82
2022-11-08T08:38:00.725Z,63.46
2022-11-08T08:40:28.171Z,64.32
2022-11-08T08:42:55.160Z,63.39
2022-11-08T08:45:21.864Z,62.71
2022-11-08T08:47:53.823Z,62.27
2022-11-08T08:50:21.313Z,63.13
2022-11-08T08:52:47.851Z,62.04
2022-11-08T08:55:15.043Z,62.50
2022-11-08T08:57:45.952Z,63.46
2022-11-08T09:03:05.570Z,63.47
2022-11-08T09:05:33.495Z,63.04
2022-11-08T09:08:00.646Z,61.32
2022-11-08T09:10:27.672Z,61.25
2022-11-08T09:12:54.333Z,61.46
2022-11-08T09:15:21.427Z,60.91
2022-11-08T09:17:48.355Z,61.33
2022-11-08T09:20:14.975Z,60.96
2022-11-08T09:22:41.554Z,61.14
2022-11-08T09:25:08.493Z,60.62
2022-11-08T09:27:35.058Z,59.55
2022-11-08T09:30:01.870Z,58.63
2022-11-08T09:32:54.025Z,58.53
2022-11-08T09:35:15.824Z,56.33
2022-11-08T09:37:45.603Z,55.30
2022-11-08T09:40:21.836Z,54.13
2022-11-08T09:42:58.530Z,53.44
2022-11-08T09:45:30.923Z,53.64
2022-11-08T09:48:07.647Z,54.08
2022-11-08T09:50:45.273Z,53.46
2022-11-08T09:53:19.040Z,53.42
2022-11-08T09:56:12.829Z,53.59
2022-11-08T09:59:08.984Z,53.48
2022-11-08T10:01:36.650Z,52.98
2022-11-08T10:04:09.008Z,53.04
2022-11-08T10:07:08.288Z,52.14
2022-11-08T10:09:53.770Z,51.30
2022-11-08T10:12:44.599Z,52.15
2022-11-08T10:15:23.439Z,50.78
2022-11-08T10:18:27.441Z,51.43
2022-11-08T10:21:12.993Z,50.93
2022-11-08T10:23:57.295Z,51.81
2022-11-08T10:26:34.948Z,51.41
2022-11-08T10:29:14.389Z,52.36
2022-11-08T10:31:43.102Z,51.38
2022-11-08T10:34:17.414Z,49.81
2022-11-08T10:36:47.226Z,50.15
2022-11-08T10:39:20.115Z,50.58
2022-11-08T10:42:08.122Z,49.99
2022-11-08T10:44:36.968Z,50.42
2022-11-08T10:47:06.979Z,50.73
2022-11-08T10:49:42.966Z,50.95
2022-11-08T10:52:12.641Z,52.66
2022-11-08T10:54:57.071Z,53.42
2022-11-08T10:57:24.013Z,52.62
2022-11-08T10:59:52.451Z,52.28
2022-11-08T11:02:32.828Z,52.18
2022-11-08T11:05:27.550Z,53.06
2022-11-08T11:07:57.662Z,51.92
2022-11-08T11:10:31.268Z,51.44
2022-11-08T11:13:14.868Z,50.57
2022-11-08T11:16:03.135Z,50.32
2022-11-08T11:18:35.773Z,50.62
2022-11-08T11:21:14.007Z,49.42
2022-11-08T11:23:43.519Z,48.34
2022-11-08T11:26:30.849Z,46.22
2022-11-08T11:29:06.901Z,46.53
2022-11-08T11:31:38.657Z,46.35
2022-11-08T11:34:31.655Z,46.12
2022-11-08T11:37:10.779Z,45.35
2022-11-08T11:39:49.832Z,44.65
2022-11-08T11:42:49.894Z,44.65
2022-11-08T11:45:31.891Z,46.11
2022-11-08T11:48:04.912Z,46.52
2022-11-08T11:50:36.076Z,45.85
2022-11-08T11:53:27.548Z,46.07
2022-11-08T11:55:54.142Z,44.78
2022-11-08T11:58:59.043Z,42.25
2022-11-08T12:01:32.611Z,41.47
2022-11-08T12:04:34.262Z,39.78
2022-11-08T12:07:06.920Z,38.97
2022-11-08T12:09:55.706Z,37.63
2022-11-08T12:12:37.470Z,36.41
2022-11-08T12:15:25.569Z,38.45
2022-11-08T12:18:02.834Z,39.31
2022-11-08T12:20:38.673Z,40.27
2022-11-08T12:23:31.589Z,40.21
2022-11-08T12:26:28.560Z,41.30
2022-11-08T12:29:16.833Z,40.47
2022-11-08T12:32:07.535Z,40.21
2022-11-08T12:34:46.182Z,40.75
2022-11-08T12:37:35.079Z,41.31
2022-11-08T12:40:23.520Z,39.73
2022-11-08T12:42:53.249Z,39.72
2022-11-08T12:45:39.114Z,40.59
2022-11-08T12:48:23.351Z,42.04
2022-11-08T12:51:49.724Z,43.31
2022-11-08T12:54:19.258Z,42.03
2022-11-08T12:56:48.466Z,44.18
2022-11-08T12:59:21.211Z,43.05
2022-11-08T13:01:48.982Z,43.65
2022-11-08T13:04:24.549Z,43.13
2022-11-08T13:07:03.971Z,43.42
2022-11-08T13:09:40.300Z,43.65
2022-11-08T13:12:30.497Z,44.21
2022-11-08T13:15:00.794Z,43.56
2022-11-08T13:17:28.949Z,42.78
2022-11-08T13:20:04.769Z,43.09
2022-11-08T13:22:32.288Z,42.07
2022-11-08T13:25:37.330Z,41.15
2022-11-08T13:28:43.493Z,40.48
2022-11-08T13:31:32.063Z,41.08
2022-11-08T13:34:17.065Z,42.18
2022-11-08T13:36:58.991Z,42.20
2022-11-08T13:39:50.133Z,42.56
2022-11-08T13:42:17.243Z,42.78
2022-11-08T13:44:56.373Z,43.78
2022-11-08T13:47:36.317Z,44.79
2022-11-08T13:50:34.027Z,44.28
2022-11-08T13:53:19.223Z,44.54
2022-11-08T13:55:57.907Z,44.56
2022-11-08T13:58:42.301Z,43.94
2022-11-08T14:01:18.356Z,45.00
2022-11-08T14:03:48.094Z,45.87
2022-11-08T14:06:50.100Z,44.78
2022-11-08T14:09:52.537Z,45.34
2022-11-08T14:12:34.510Z,45.11
2022-11-08T14:15:07.582Z,45.60
2022-11-08T14:17:44.906Z,45.61
2022-11-08T14:20:23.625Z,45.84
2022-11-08T14:22:51.276Z,45.97
2022-11-08T14:25:25.065Z,45.99
2022-11-08T14:27:51.800Z,46.01
2022-11-08T14:30:21.090Z,45.90
2022-11-08T14:32:48.151Z,45.60
2022-11-08T14:35:28.140Z,45.84
2022-11-08T14:37:55.007Z,47.36
2022-11-08T14:40:23.123Z,46.60
2022-11-08T14:42:51.180Z,46.38
2022-11-08T14:45:25.493Z,46.43
2022-11-08T14:47:56.176Z,46.94
2022-11-08T14:50:29.249Z,46.86
2022-11-08T14:52:56.722Z,46.63
2022-11-08T14:55:24.134Z,46.54
2022-11-08T14:57:50.898Z,46.55
2022-11-08T15:00:26.914Z,46.17
2022-11-08T15:02:57.502Z,46.63
2022-11-08T15:05:30.388Z,46.23
2022-11-08T15:08:01.889Z,46.70
2022-11-08T15:10:29.251Z,47.09
2022-11-08T15:12:56.919Z,46.28
2022-11-08T15:15:31.051Z,46.04
2022-11-08T15:18:17.658Z,47.42
2022-11-08T15:20:55.218Z,46.85
2022-11-08T15:23:32.235Z,46.82
2022-11-08T15:26:00.331Z,46.22
2022-11-08T15:28:34.521Z,46.59
2022-11-08T15:31:04.323Z,46.04
2022-11-08T15:33:40.813Z,46.73
2022-11-08T15:36:13.532Z,47.20
2022-11-08T15:38:48.342Z,47.06
2022-11-08T15:41:39.783Z,47.62
2022-11-08T15:44:14.713Z,47.79
2022-11-08T15:46:41.753Z,47.11
2022-11-08T15:49:45.187Z,46.67
2022-11-08T15:52:11.810Z,46.51
2022-11-08T15:54:38.398Z,47.01
2022-11-08T15:57:05.163Z,46.89
2022-11-08T15:59:35.855Z,46.57
2022-11-08T16:02:04.016Z,46.55
2022-11-08T16:04:30.976Z,46.62
2022-11-08T16:06:58.034Z,46.57
2022-11-08T16:09:24.734Z,46.11
2022-11-08T16:11:51.678Z,46.42
2022-11-08T16:14:22.628Z,45.99
2022-11-08T16:16:49.580Z,46.45
2022-11-08T16:19:22.045Z,45.99
2022-11-08T16:21:49.205Z,46.50
2022-11-08T16:24:16.043Z,46.38
2022-11-08T16:26:44.539Z,46.70
2022-11-08T16:29:23.580Z,46.91
2022-11-08T16:31:51.338Z,46.35
2022-11-08T16:34:18.851Z,46.01
2022-11-08T16:36:46.917Z,46.47
2022-11-08T16:39:19.468Z,47.18
2022-11-08T16:41:46.095Z,47.45
2022-11-08T16:44:13.256Z,47.30
2022-11-08T16:46:40.363Z,48.12
2022-11-08T16:49:15.252Z,47.91
2022-11-08T16:51:41.904Z,46.75
2022-11-08T16:54:17.540Z,46.94
2022-11-08T16:56:44.222Z,47.68
2022-11-08T16:59:10.859Z,47.00
2022-11-08T17:01:38.335Z,47.35
2022-11-08T17:04:05.070Z,47.45
2022-11-08T17:06:31.822Z,46.76
2022-11-08T17:08:58.466Z,47.39
2022-11-08T17:11:25.797Z,47.02
2022-11-08T17:13:55.414Z,47.02
2022-11-08T17:16:22.253Z,47.59
2022-11-08T17:18:52.969Z,47.31
2022-11-08T17:24:08.030Z,47.11
2022-11-08T17:26:34.645Z,46.86
2022-11-08T17:29:01.314Z,46.22
2022-11-08T17:31:27.998Z,45.94
2022-11-08T17:33:55.748Z,46.11
2022-11-08T17:36:22.315Z,46.82
2022-11-08T17:38:49.211Z,46.29
2022-11-08T17:41:15.958Z,46.66
2022-11-08T17:43:43.961Z,46.49
2022-11-08T17:46:11.694Z,47.07
2022-11-08T17:48:40.038Z,46.75
2022-11-08T17:51:06.873Z,46.75
2022-11-08T17:53:34.522Z,46.61
2022-11-08T17:56:05.127Z,46.29
2022-11-08T17:58:33.990Z,45.82
2022-11-08T18:01:02.686Z,45.71
2022-11-08T18:03:29.741Z,45.47
2022-11-08T18:06:00.900Z,45.36
2022-11-08T18:08:30.357Z,45.78
2022-11-08T18:10:57.492Z,46.12
2022-11-08T18:13:25.439Z,45.77
2022-11-08T18:15:52.757Z,45.88
2022-11-08T18:18:21.195Z,45.07
2022-11-08T18:20:54.462Z,45.26
2022-11-08T18:23:21.615Z,44.91
2022-11-08T18:25:49.698Z,44.96
2022-11-08T18:28:17.369Z,44.13
2022-11-08T18:30:47.712Z,44.32
2022-11-08T18:33:14.516Z,44.36
2022-11-08T18:35:41.195Z,44.68
2022-11-08T18:38:07.812Z,44.15
2022-11-08T18:40:34.567Z,44.29
2022-11-08T18:43:01.212Z,43.44
2022-11-08T18:45:27.944Z,44.06
2022-11-08T18:47:54.639Z,44.11
2022-11-08T18:50:21.298Z,44.58
2022-11-08T18:52:48.269Z,44.79
2022-11-08T18:55:15.823Z,44.63
2022-11-08T18:57:42.625Z,44.92
2022-11-08T19:00:10.170Z,45.39
2022-11-08T19:02:36.834Z,45.46
2022-11-08T19:05:03.676Z,44.47
2022-11-08T19:07:30.384Z,45.21
2022-11-08T19:09:57.101Z,45.01
2022-11-08T19:12:23.874Z,44.95
2022-11-08T19:14:50.528Z,45.12
2022-11-08T19:17:17.237Z,44.99
2022-11-08T19:19:44.296Z,45.32
2022-11-08T19:22:11.159Z,44.80
2022-11-08T19:24:38.356Z,44.87
2022-11-08T19:27:06.016Z,44.76
2022-11-08T19:29:32.594Z,45.33
2022-11-08T19:31:59.498Z,45.54
2022-11-08T19:34:26.335Z,44.80
2022-11-08T19:36:56.076Z,45.01
2022-11-08T19:39:24.503Z,45.13
2022-11-08T19:41:51.338Z,45.94
2022-11-08T19:44:18.201Z,45.49
2022-11-08T19:46:44.832Z,45.61
2022-11-08T19:49:11.576Z,45.63
2022-11-08T19:51:38.756Z,46.80
2022-11-08T19:54:08.155Z,46.42
2022-11-08T19:57:04.135Z,46.84
2022-11-08T19:59:23.247Z,46.31
2022-11-08T20:01:49.805Z,46.44
2022-11-08T20:04:18.526Z,46.81
2022-11-08T20:06:46.334Z,47.44
2022-11-08T20:09:13.358Z,47.17
2022-11-08T20:11:41.460Z,47.13
2022-11-08T20:14:08.929Z,47.38
2022-11-08T20:16:39.553Z,47.08
2022-11-08T20:19:09.512Z,46.85
2022-11-08T20:21:38.843Z,47.49
2022-11-08T20:24:05.835Z,47.64
2022-11-08T20:26:34.747Z,48.45
2022-11-08T20:29:01.334Z,49.77
2022-11-08T20:31:28.656Z,50.87
2022-11-08T20:33:56.216Z,50.60
2022-11-08T20:36:24.698Z,50.66
2022-11-08T20:38:56.892Z,49.73
2022-11-08T20:41:24.828Z,50.79
2022-11-08T20:43:51.541Z,50.10
2022-11-08T20:46:20.398Z,49.51
2022-11-08T20:48:51.812Z,49.59
2022-11-08T20:51:20.871Z,49.13
2022-11-08T20:53:48.441Z,50.10
2022-11-08T20:56:17.550Z,49.19
2022-11-08T20:58:45.926Z,48.77
2022-11-08T21:01:15.016Z,48.93
2022-11-08T21:03:44.675Z,49.02
2022-11-08T21:06:18.008Z,49.03
2022-11-08T21:09:05.628Z,48.60
2022-11-08T21:11:32.549Z,48.95
2022-11-08T21:13:59.382Z,48.77
2022-11-08T21:16:30.599Z,48.70
2022-11-08T21:19:00.170Z,48.98
2022-11-08T21:21:27.064Z,49.02
2022-11-08T21:23:54.715Z,48.63
2022-11-08T21:26:22.313Z,48.52
2022-11-08T21:28:49.151Z,48.71
2022-11-08T21:31:15.960Z,49.44
2022-11-08T21:33:42.995Z,48.73
2022-11-08T21:36:10.130Z,47.92
2022-11-08T21:38:38.598Z,47.81
2022-11-08T21:41:08.005Z,47.59
2022-11-08T21:43:42.907Z,48.79
2022-11-08T21:46:19.095Z,48.38
2022-11-08T21:48:47.342Z,48.05
2022-11-08T21:51:14.129Z,48.53
2022-11-08T21:53:49.375Z,48.76
2022-11-08T21:56:21.190Z,48.57
2022-11-08T21:58:47.850Z,48.32
2022-11-08T22:01:14.726Z,48.32
2022-11-08T22:03:41.408Z,48.23
2022-11-08T22:06:08.457Z,48.51
2022-11-08T22:08:35.196Z,48.38
2022-11-08T22:11:01.853Z,48.10
2022-11-08T22:13:28.557Z,47.80
2022-11-08T22:15:55.434Z,48.05
2022-11-08T22:18:42.925Z,48.80
2022-11-08T22:21:27.288Z,48.04
2022-11-08T22:23:54.067Z,48.35
2022-11-08T22:26:20.722Z,47.78
2022-11-08T22:28:47.549Z,49.20
2022-11-08T22:31:14.455Z,48.78
2022-11-08T22:33:41.133Z,48.29
2022-11-08T22:36:08.325Z,48.31
2022-11-08T22:38:35.997Z,48.32
2022-11-08T22:41:02.679Z,48.52
2022-11-08T22:43:29.738Z,47.84
2022-11-08T22:45:56.443Z,48.54
2022-11-08T22:48:23.112Z,48.79
2022-11-08T22:50:49.783Z,48.13
2022-11-08T22:53:16.602Z,48.19
2022-11-08T22:55:45.027Z,47.89
2022-11-08T22:58:12.812Z,47.57
2022-11-08T23:00:39.444Z,48.61
2022-11-08T23:03:07.517Z,47.84
2022-11-08T23:05:34.199Z,47.81
2022-11-08T23:08:01.036Z,47.16
2022-11-08T23:10:27.729Z,47.93
2022-11-08T23:13:13.022Z,47.59
2022-11-08T23:16:18.087Z,47.08
2022-11-08T23:19:05.003Z,47.45
2022-11-08T23:21:50.463Z,47.16
2022-11-08T23:24:20.036Z,47.12
2022-11-08T23:27:05.309Z,47.60
2022-11-08T23:29:50.793Z,47.78
2022-11-08T23:32:17.457Z,48.09
2022-11-08T23:34:44.294Z,47.39
2022-11-08T23:37:11.015Z,47.41
2022-11-08T23:39:57.706Z,47.48
2022-11-08T23:42:40.293Z,47.65
2022-11-08T23:45:07.546Z,47.08
2022-11-08T23:47:34.156Z,47.60
2022-11-08T23:50:00.895Z,48.51
2022-11-08T23:52:27.580Z,47.95
2022-11-08T23:54:54.251Z,48.62
2022-11-08T23:57:20.827Z,48.18
2022-11-08T23:59:47.437Z,48.00
